Time;durP1;ratioP1;P1;durP2;ratioP2;P2;SDS_P1;SDS_P2;PMS_P1;PMS_P2;Temp;Humidity;BMP_temperature;BMP_pressure;BME280_temperature;BME280_humidity;BME280_pressure;Samples;Min_cycle;Max_cycle;Signal;HPM_P1;HPM_P2
2021/06/06 00:00:11;;;;;;;;;;;12.20;1.40;;;13.16;100.00;95862.41;652902;213;24746;-70
2021/06/06 00:02:52;;;;;;;;;;;12.20;1.40;;;13.21;100.00;95860.31;653626;216;25084;-70
2021/06/06 00:05:55;;;;;;;;;;;12.30;1.40;;;13.27;100.00;95852.20;652328;212;25044;-69
2021/06/06 00:08:37;;;;;;;;;;;12.30;1.40;;;13.27;100.00;95848.73;653051;212;24815;-69
2021/06/06 00:11:22;;;;;;;;;;;12.30;1.40;;;13.26;100.00;95847.55;652346;212;24896;-70
2021/06/06 00:14:04;;;;;;;;;;;12.30;1.40;;;13.25;100.00;95846.05;652536;212;24745;-70
2021/06/06 00:16:48;;;;;;;;;;;12.30;1.40;;;13.23;100.00;95840.22;651948;216;24836;-69
2021/06/06 00:19:29;;;;;;;;;;;12.30;1.40;;;13.19;100.00;95838.39;652911;216;24816;-69
2021/06/06 00:22:11;;;;;;;;;;;12.30;1.40;;;13.21;100.00;95838.87;652301;213;25100;-70
2021/06/06 00:24:52;;;;;;;;;;;12.30;1.40;;;13.17;100.00;95837.77;654680;216;25593;-69
2021/06/06 00:27:36;;;;;;;;;;;12.30;1.40;;;13.11;100.00;95832.09;652665;216;24829;-70
2021/06/06 00:30:18;;;;;;;;;;;12.20;1.40;;;13.10;100.00;95830.59;653506;216;24805;-69
2021/06/06 00:32:59;;;;;;;;;;;12.20;1.40;;;13.10;100.00;95831.62;653355;212;24831;-70
2021/06/06 00:35:51;;;;;;;1.70;1.40;;;12.20;1.40;;;13.15;100.00;95831.77;648226;216;31645;-69
2021/06/06 00:38:33;;;;;;;3.10;1.50;;;12.30;1.40;;;13.14;100.00;95829.17;646738;212;31534;-70
2021/06/06 00:41:17;;;;;;;1.80;1.60;;;12.20;1.40;;;13.16;100.00;95834.96;647056;212;31558;-69
2021/06/06 00:43:59;;;;;;;2.05;1.35;;;12.20;1.40;;;13.15;100.00;95831.27;648250;212;42207;-69
2021/06/06 00:46:44;;;;;;;2.20;1.50;;;12.20;1.40;;;13.19;100.00;95834.63;647321;216;31592;-70
2021/06/06 00:49:25;;;;;;;;;;;12.20;1.40;;;13.19;100.00;95834.91;652193;212;24827;-70
2021/06/06 00:52:06;;;;;;;;;;;12.30;1.40;;;13.21;100.00;95830.27;653868;216;24807;-69
2021/06/06 00:54:51;;;;;;;;;;;12.20;1.40;;;13.21;100.00;95832.80;652618;212;25288;-69
2021/06/06 00:57:32;;;;;;;;;;;12.30;1.40;;;13.21;100.00;95834.67;652404;212;24820;-69
2021/06/06 01:00:27;;;;;;;;;;;12.20;1.40;;;13.23;100.00;95833.05;649013;215;24805;-69
2021/06/06 01:03:09;;;;;;;;;;;12.30;1.40;;;13.22;100.00;95832.45;653070;216;24813;-70
2021/06/06 01:05:51;;;;;;;;;;;12.30;1.40;;;13.19;100.00;95832.61;652364;216;24968;-70
2021/06/06 01:08:33;;;;;;;;;;;12.30;1.40;;;13.26;100.00;95832.13;653842;212;24817;-69
2021/06/06 01:11:18;;;;;;;;;;;12.30;1.40;;;13.28;100.00;95840.63;653230;212;24728;-70
2021/06/06 01:13:59;;;;;;;;;;;12.30;1.40;;;13.23;100.00;95831.67;649789;212;24829;-70
2021/06/06 01:16:42;;;;;;;;;;;12.30;1.40;;;13.26;100.00;95828.32;652710;212;24720;-69
2021/06/06 01:19:38;;;;;;;;;;;12.30;1.40;;;13.24;100.00;95822.62;652815;212;25796;-70
2021/06/06 01:22:35;;;;;;;;;;;12.30;1.40;;;13.21;100.00;95821.11;653145;216;25435;-69
2021/06/06 01:25:21;;;;;;;;;;;12.30;1.40;;;13.23;100.00;95815.33;653825;212;25318;-70
2021/06/06 01:28:08;;;;;;;;;;;12.30;1.40;;;13.17;100.00;95813.97;653097;212;25417;-70
2021/06/06 01:30:50;;;;;;;;;;;12.20;1.40;;;13.18;100.00;95812.39;653241;212;24839;-70
2021/06/06 01:35:54;;;;;;;1.60;1.50;;;12.20;1.40;;;13.20;100.00;95812.07;646534;216;31646;-70
2021/06/06 01:38:37;;;;;;;;;;;12.30;1.40;;;13.21;100.00;95815.84;653826;216;24837;-70
2021/06/06 01:41:18;;;;;;;;;;;12.20;1.40;;;13.21;100.00;95816.33;652344;212;25294;-70
2021/06/06 01:43:59;;;;;;;;;;;12.30;1.40;;;13.20;100.00;95815.17;653234;212;24800;-70
2021/06/06 01:46:44;;;;;;;;;;;12.30;1.40;;;13.26;100.00;95813.34;648615;215;24751;-70
2021/06/06 01:49:25;;;;;;;;;;;12.30;1.40;;;13.27;100.00;95811.09;652926;212;24816;-70
2021/06/06 01:52:06;;;;;;;;;;;12.30;1.40;;;13.27;100.00;95807.77;652858;212;24850;-70
2021/06/06 01:54:47;;;;;;;;;;;12.30;1.40;;;13.30;100.00;95804.62;652462;212;24761;-70
2021/06/06 01:57:29;;;;;;;;;;;12.30;1.40;;;13.31;100.00;95808.09;654238;216;25644;-69
2021/06/06 02:00:15;;;;;;;;;;;12.40;1.40;;;13.27;100.00;95803.52;652829;216;24828;-70
2021/06/06 02:02:56;;;;;;;;;;;12.30;1.40;;;13.27;100.00;95800.95;653579;212;24819;-70
2021/06/06 02:05:38;;;;;;;;;;;12.30;1.40;;;13.29;100.00;95797.20;653915;212;24815;-70
2021/06/06 02:08:19;;;;;;;;;;;12.30;1.40;;;13.24;100.00;95788.73;648908;216;24865;-69
2021/06/06 02:11:06;;;;;;;;;;;12.30;1.40;;;13.29;100.00;95785.50;652603;212;24804;-70
2021/06/06 02:13:49;;;;;;;;;;;12.30;1.40;;;13.27;100.00;95787.78;652610;216;24898;-69
2021/06/06 02:16:29;;;;;;;;;;;12.30;1.40;;;13.21;100.00;95785.50;651699;212;24725;-70
2021/06/06 02:19:10;;;;;;;;;;;12.30;1.40;;;13.26;100.00;95790.53;654055;212;24704;-70
2021/06/06 02:21:52;;;;;;;;;;;12.30;1.40;;;13.25;100.00;95787.01;653425;216;24820;-70
2021/06/06 02:24:33;;;;;;;;;;;12.30;1.40;;;13.27;100.00;95787.90;652827;216;24902;-70
2021/06/06 02:27:21;;;;;;;;;;;12.30;1.40;;;13.27;100.00;95784.56;653511;216;24908;-70
2021/06/06 02:30:11;;;;;;;;;;;12.30;1.40;;;13.28;100.00;95781.88;652995;212;24802;-69
2021/06/06 02:32:55;;;;;;;;;;;12.30;1.40;;;13.29;100.00;95783.27;653476;212;24717;-70
2021/06/06 02:35:53;;;;;;;2.00;1.75;;;12.40;1.40;;;13.32;100.00;95780.89;647163;212;31988;-70
2021/06/06 02:38:42;;;;;;;1.60;1.50;;;12.30;1.40;;;13.35;100.00;95777.98;646590;216;31574;-70
2021/06/06 02:41:26;;;;;;;1.83;1.67;;;12.40;1.40;;;13.36;100.00;95781.21;635872;220;31885;-70
2021/06/06 02:44:12;;;;;;;1.60;1.50;;;12.40;1.40;;;13.33;100.00;95781.78;648070;216;31548;-69
2021/06/06 02:46:53;;;;;;;1.60;1.50;;;12.30;1.40;;;13.32;100.00;95781.15;617723;226;42546;-70
2021/06/06 02:49:38;;;;;;;1.93;1.77;;;12.30;1.40;;;13.34;100.00;95783.98;646856;216;31540;-69
2021/06/06 02:52:22;;;;;;;1.60;1.50;;;12.40;1.40;;;13.34;100.00;95782.58;646710;212;42162;-70
2021/06/06 02:55:15;;;;;;;1.97;1.77;;;12.30;1.40;;;13.36;100.00;95786.84;646609;216;31566;-70
2021/06/06 02:57:58;;;;;;;2.77;2.00;;;12.30;1.40;;;13.41;100.00;95787.09;646745;212;42145;-70
2021/06/06 03:00:40;;;;;;;;;;;12.30;1.40;;;13.38;100.00;95790.11;652522;216;24848;-70
2021/06/06 03:03:23;;;;;;;;;;;12.30;1.40;;;13.31;100.00;95793.07;651889;216;24826;-69
2021/06/06 03:06:08;;;;;;;;;;;12.30;1.40;;;13.30;100.00;95787.80;652970;212;24823;-70
2021/06/06 03:08:49;;;;;;;;;;;12.40;1.40;;;13.30;100.00;95795.17;653452;212;24808;-70
2021/06/06 03:11:30;;;;;;;;;;;12.40;1.40;;;13.29;100.00;95794.37;652932;212;24883;-71
2021/06/06 03:14:15;;;;;;;;;;;12.40;1.40;;;13.29;100.00;95795.28;653901;216;24799;-70
2021/06/06 03:16:57;;;;;;;;;;;12.40;1.40;;;13.30;100.00;95792.11;654083;213;25611;-70
2021/06/06 03:19:39;;;;;;;;;;;12.40;1.40;;;13.28;100.00;95790.80;652400;216;24903;-71
2021/06/06 03:22:21;;;;;;;;;;;12.30;1.40;;;13.25;100.00;95791.33;652364;216;24833;-69
2021/06/06 03:25:02;;;;;;;;;;;12.30;1.40;;;13.30;100.00;95792.11;652837;212;24805;-71
2021/06/06 03:27:43;;;;;;;;;;;12.30;1.40;;;13.31;100.00;95793.45;653253;212;24992;-70
2021/06/06 03:30:32;;;;;;;;;;;12.30;1.40;;;13.35;100.00;95793.93;653592;216;24811;-70
2021/06/06 03:35:51;;;;;;;2.42;1.50;;;12.40;1.40;;;13.41;100.00;95789.08;618830;222;31968;-69
2021/06/06 03:38:33;;;;;;;1.80;1.70;;;12.30;1.40;;;13.40;100.00;95786.20;619649;222;32380;-70
2021/06/06 03:41:15;;;;;;;1.70;1.60;;;12.30;1.40;;;13.41;100.00;95783.83;646973;216;31782;-70
2021/06/06 03:43:56;;;;;;;2.00;1.70;;;12.40;1.40;;;13.42;100.00;95779.11;646526;212;31567;-70
2021/06/06 03:46:38;;;;;;;2.40;1.70;;;12.40;1.40;;;13.36;100.00;95773.06;647310;212;31544;-70
2021/06/06 03:49:20;;;;;;;2.10;1.90;;;12.40;1.40;;;13.32;100.00;95772.84;617673;226;42692;-70
2021/06/06 03:52:01;;;;;;;2.30;1.70;;;12.40;1.40;;;13.32;100.00;95773.66;619687;222;42399;-70
2021/06/06 03:54:43;;;;;;;2.20;1.83;;;12.40;1.40;;;13.32;100.00;95775.39;648323;216;42194;-70
2021/06/06 03:57:28;;;;;;;2.60;1.80;;;12.40;1.40;;;13.41;100.00;95766.24;646503;216;42196;-69
2021/06/06 04:00:14;;;;;;;3.00;1.80;;;12.40;1.40;;;13.42;100.00;95767.69;646709;216;33466;-70
2021/06/06 04:02:54;;;;;;;2.73;2.20;;;12.40;1.40;;;13.52;100.00;95769.05;646935;216;42272;-70
2021/06/06 04:05:36;;;;;;;2.20;1.80;;;12.40;1.40;;;13.44;100.00;95771.48;646000;216;32020;-70
2021/06/06 04:08:18;;;;;;;1.98;1.67;;;12.40;1.40;;;13.38;100.00;95776.69;646668;212;31717;-72
2021/06/06 04:10:59;;;;;;;1.77;1.57;;;12.30;1.40;;;13.43;100.00;95767.28;645375;212;31590;-70
2021/06/06 04:13:41;;;;;;;2.03;1.70;;;12.40;1.40;;;13.43;100.00;95770.33;618464;226;42576;-69
2021/06/06 04:16:26;;;;;;;1.97;1.60;;;12.40;1.40;;;13.42;100.00;95769.98;646806;216;31547;-70
2021/06/06 04:19:07;;;;;;;1.60;1.50;;;12.40;1.40;;;13.47;100.00;95765.95;647240;216;31630;-70
2021/06/06 04:24:26;;;;;;;2.50;1.60;;;12.50;1.40;;;13.51;100.00;95763.28;646513;216;42157;-70
2021/06/06 04:27:08;;;;;;;2.33;1.60;;;12.50;1.40;;;13.47;100.00;95765.35;645796;216;31534;-70
2021/06/06 04:29:50;;;;;;;1.67;1.57;;;12.40;1.40;;;13.52;100.00;95763.00;647494;212;31659;-70
2021/06/06 04:35:51;;;;;;;1.52;1.40;;;12.50;1.40;;;13.51;100.00;95765.89;646567;212;31601;-69
2021/06/06 04:38:35;;;;;;;1.90;1.50;;;12.50;1.40;;;13.55;100.00;95769.76;617632;222;33867;-69
2021/06/06 04:41:17;;;;;;;2.40;1.60;;;12.50;1.40;;;13.60;100.00;95774.33;646372;212;42216;-70
2021/06/06 04:43:59;;;;;;;1.60;1.50;;;12.50;1.40;;;13.54;100.00;95770.78;645661;216;42195;-70
2021/06/06 04:46:43;;;;;;;1.70;1.60;;;12.50;1.40;;;13.63;100.00;95768.47;646714;216;42164;-70
2021/06/06 04:49:25;;;;;;;1.90;1.67;;;12.50;1.40;;;13.59;100.00;95764.84;646836;216;42114;-70
2021/06/06 04:52:07;;;;;;;2.10;1.70;;;12.50;1.40;;;13.59;100.00;95755.03;645141;212;33304;-70
2021/06/06 04:54:49;;;;;;;1.90;1.50;;;12.60;1.40;;;13.62;100.00;95749.65;646777;216;31537;-69
2021/06/06 04:57:30;;;;;;;1.60;1.50;;;12.60;1.40;;;13.61;100.00;95748.48;646217;216;42201;-70
2021/06/06 05:00:14;;;;;;;2.20;1.40;;;12.60;1.40;;;13.58;100.00;95752.54;646451;216;42394;-70
2021/06/06 05:02:59;;;;;;;1.70;1.40;;;12.60;1.40;;;13.63;100.00;95755.77;646704;216;32534;-71
2021/06/06 05:05:40;;;;;;;2.27;1.73;;;12.60;1.40;;;13.58;100.00;95749.22;647554;216;42681;-70
2021/06/06 05:08:22;;;;;;;1.70;1.60;;;12.60;1.40;;;13.60;100.00;95752.87;645492;216;42817;-70
2021/06/06 05:11:04;;;;;;;1.95;1.30;;;12.60;1.40;;;13.68;100.00;95749.87;646290;216;34246;-70
2021/06/06 05:13:48;;;;;;;1.20;1.10;;;12.70;1.40;;;13.59;100.00;95751.53;644087;216;32033;-70
2021/06/06 05:16:30;;;;;;;1.50;1.40;;;12.60;1.40;;;13.71;100.00;95753.59;645949;212;31604;-70
2021/06/06 05:19:12;;;;;;;1.90;1.13;;;12.80;1.40;;;13.72;100.00;95754.66;645797;216;31739;-70
2021/06/06 05:21:54;;;;;;;1.73;1.42;;;12.70;1.40;;;13.66;100.00;95758.25;619545;226;31950;-71
2021/06/06 05:24:39;;;;;;;1.27;1.10;;;12.70;1.40;;;13.74;100.00;95756.65;646592;213;31492;-70
2021/06/06 05:27:20;;;;;;;3.07;1.40;;;12.70;1.40;;;13.75;100.00;95755.53;620151;222;42520;-70
2021/06/06 05:32:36;;;;;;;1.20;1.00;;;12.80;1.40;;;13.73;100.00;95759.42;646054;216;32015;-70
2021/06/06 05:35:51;;;;;;;1.30;1.20;;;12.80;1.40;;;13.74;100.00;95756.27;646224;216;31676;-70
2021/06/06 05:38:33;;;;;;;1.00;1.00;;;12.80;1.40;;;13.79;100.00;95754.95;645910;216;31524;-69
2021/06/06 05:41:14;;;;;;;1.20;1.10;;;12.90;1.40;;;13.82;100.00;95760.33;645893;212;31562;-69
2021/06/06 05:43:56;;;;;;;1.30;1.20;;;12.90;1.40;;;13.74;100.00;95765.11;645931;212;42679;-69
2021/06/06 05:46:38;;;;;;;1.77;1.20;;;12.80;1.40;;;13.76;100.00;95766.66;646130;216;34483;-70
2021/06/06 05:49:19;;;;;;;1.10;1.00;;;12.80;1.40;;;13.84;100.00;95765.73;647321;216;42123;-70
2021/06/06 05:52:01;;;;;;;1.40;1.20;;;12.90;1.40;;;13.82;100.00;95769.38;645579;212;42159;-70
2021/06/06 05:54:43;;;;;;;1.20;0.90;;;12.90;1.40;;;13.75;100.00;95768.94;618882;222;32063;-69
2021/06/06 05:57:24;;;;;;;1.20;0.70;;;12.80;1.40;;;13.73;100.00;95767.70;646806;212;31556;-70
2021/06/06 06:00:09;;;;;;;2.20;1.10;;;12.80;1.40;;;13.73;100.00;95773.81;646622;212;31567;-70
2021/06/06 06:02:51;;;;;;;1.43;0.90;;;12.80;1.40;;;13.66;100.00;95770.46;645937;216;31556;-69
2021/06/06 06:05:33;;;;;;;1.20;0.82;;;12.80;1.40;;;13.76;100.00;95771.19;647846;216;31551;-70
2021/06/06 06:08:19;;;;;;;0.80;0.80;;;12.80;1.40;;;13.79;100.00;95773.99;646814;216;31551;-70
2021/06/06 06:11:01;;;;;;;2.10;0.90;;;12.80;1.40;;;13.85;100.00;95772.46;645824;212;31511;-69
2021/06/06 06:13:43;;;;;;;1.00;0.80;;;12.90;1.40;;;13.78;100.00;95771.82;647450;216;31506;-70
2021/06/06 06:16:25;;;;;;;1.50;0.80;;;12.90;1.40;;;13.81;100.00;95776.88;646471;212;42671;-70
2021/06/06 06:19:07;;;;;;;1.27;0.70;;;12.90;1.40;;;13.80;100.00;95774.84;646744;216;42239;-69
2021/06/06 06:21:52;;;;;;;0.87;0.70;;;12.90;1.40;;;13.81;100.00;95768.97;646089;216;42139;-69
2021/06/06 06:24:35;;;;;;;2.30;0.80;;;12.90;1.40;;;13.88;100.00;95769.31;644855;212;31504;-69
2021/06/06 06:27:15;;;;;;;0.80;0.70;;;13.00;1.40;;;13.83;100.00;95766.36;647204;212;42138;-70
2021/06/06 06:29:57;;;;;;;1.30;0.80;;;12.90;1.40;;;13.81;100.00;95769.39;647115;216;31515;-71
2021/06/06 06:35:50;;;;;;;1.70;0.80;;;12.90;1.40;;;13.73;100.00;95761.70;646688;216;32377;-69
2021/06/06 06:38:33;;;;;;;1.20;0.70;;;12.80;1.40;;;13.80;100.00;95767.36;618635;226;32029;-68
2021/06/06 06:41:14;;;;;;;1.30;0.60;;;12.90;1.40;;;13.82;100.00;95765.66;645942;212;31635;-69
2021/06/06 06:43:55;;;;;;;0.60;0.60;;;12.90;1.40;;;13.70;100.00;95774.86;647182;216;42112;-69
2021/06/06 06:46:37;;;;;;;0.93;0.70;;;12.80;1.40;;;13.77;100.00;95772.36;647187;212;42102;-69
2021/06/06 06:49:19;;;;;;;0.80;0.60;;;12.90;1.40;;;13.82;100.00;95770.75;647058;216;31593;-69
2021/06/06 06:52:04;;;;;;;1.00;0.90;;;13.00;1.40;;;13.79;100.00;95775.28;646348;216;31516;-69
2021/06/06 06:54:46;;;;;;;1.10;0.83;;;12.90;1.40;;;13.74;100.00;95770.71;647261;212;32504;-69
2021/06/06 06:57:28;;;;;;;0.80;0.77;;;12.90;1.40;;;13.68;100.00;95772.88;646595;216;42161;-69
2021/06/06 07:00:12;;;;;;;1.10;0.90;;;12.80;1.40;;;13.71;100.00;95773.58;646526;216;31924;-70
2021/06/06 07:02:54;;;;;;;1.40;0.70;;;12.90;1.40;;;13.75;100.00;95775.55;619058;226;32017;-69
2021/06/06 07:05:35;;;;;;;1.60;0.70;;;12.90;1.40;;;13.77;100.00;95776.77;646261;216;31928;-68
2021/06/06 07:08:17;;;;;;;1.30;0.70;;;12.90;1.40;;;13.78;100.00;95770.58;647992;212;31568;-70
2021/06/06 07:10:58;;;;;;;2.87;0.98;;;12.80;1.40;;;13.82;100.00;95771.22;647898;212;31996;-69
2021/06/06 07:15:28;;;;;;;0.80;0.70;;;12.90;1.40;;;13.96;100.00;95765.35;647299;212;31477;-70
2021/06/06 07:18:09;;;;;;;1.10;0.90;;;13.00;1.40;;;13.87;100.00;95765.08;647952;216;31501;-69
2021/06/06 07:20:54;;;;;;;1.00;0.70;;;12.90;1.40;;;13.91;100.00;95761.95;645178;216;31748;-69
2021/06/06 07:23:35;;;;;;;1.37;0.90;;;13.00;1.40;;;14.02;100.00;95763.25;645753;216;31754;-69
2021/06/06 07:26:19;;;;;;;0.90;0.80;;;13.00;1.40;;;14.02;100.00;95759.25;646348;212;42170;-69
2021/06/06 07:29:00;;;;;;;0.90;0.80;;;13.00;1.40;;;14.09;100.00;95758.72;645033;216;31545;-69
2021/06/06 07:31:42;;;;;;;0.90;0.70;;;13.10;1.40;;;14.17;100.00;95755.73;647323;216;31540;-69
2021/06/06 07:35:52;;;;;;;1.10;0.90;;;13.20;1.40;;;14.25;100.00;95751.61;645778;212;42201;-69
2021/06/06 07:38:33;;;;;;;0.97;0.83;;;13.30;1.40;;;14.29;100.00;95756.73;646184;212;42149;-70
2021/06/06 07:41:15;;;;;;;0.87;0.70;;;13.30;1.40;;;14.21;100.00;95753.58;647671;216;42151;-72
2021/06/06 07:43:57;;;;;;;0.80;0.70;;;13.20;1.40;;;14.28;100.00;95756.27;646098;212;38151;-70
2021/06/06 07:46:40;;;;;;;0.80;0.80;;;13.30;1.40;;;14.36;100.00;95754.06;646717;216;31489;-69
2021/06/06 07:49:23;;;;;;;1.30;0.90;;;13.30;1.40;;;14.39;100.00;95752.49;646689;216;40580;-70
2021/06/06 07:52:04;;;;;;;1.30;1.20;;;13.30;1.40;;;14.40;100.00;95753.05;646479;216;31530;-69
2021/06/06 07:54:46;;;;;;;1.00;0.90;;;13.40;1.40;;;14.55;100.00;95747.84;647761;216;34515;-70
2021/06/06 07:57:28;;;;;;;1.60;1.50;;;13.50;1.40;;;14.56;100.00;95751.03;647458;216;34527;-70
2021/06/06 08:00:10;;;;;;;1.85;1.42;;;13.50;1.40;;;14.65;100.00;95750.97;645586;216;31546;-70
2021/06/06 08:02:52;;;;;;;1.37;1.08;;;13.50;1.40;;;14.73;100.00;95746.99;646732;216;38436;-70
2021/06/06 08:05:33;;;;;;;3.92;2.33;;;13.60;1.40;;;14.65;100.00;95749.84;647013;216;31730;-70
2021/06/06 08:08:15;;;;;;;5.50;5.20;;;13.60;1.40;;;14.65;100.00;95754.17;645799;216;31582;-70
2021/06/06 08:11:00;;;;;;;1.50;1.40;;;13.50;1.40;;;14.63;100.00;95751.58;646296;212;32098;-70
2021/06/06 08:13:41;;;;;;;1.40;1.30;;;13.50;1.40;;;14.64;100.00;95749.35;645474;216;32182;-69
2021/06/06 08:16:23;;;;;;;1.23;1.12;;;13.60;1.40;;;14.67;100.00;95749.86;644925;215;32047;-70
2021/06/06 08:19:05;;;;;;;1.40;1.20;;;13.60;1.40;;;14.69;100.00;95748.34;646886;212;31631;-69
2021/06/06 08:21:48;;;;;;;7.03;6.17;;;13.60;1.40;;;14.78;100.00;95749.02;647006;212;31871;-70
2021/06/06 08:24:28;;;;;;;4.62;4.22;;;13.70;1.40;;;14.61;100.00;95749.50;646154;212;31783;-70
2021/06/06 08:27:13;;;;;;;4.50;4.20;;;13.50;1.40;;;14.66;100.00;95751.84;645859;212;31596;-68
2021/06/06 08:29:55;;;;;;;2.13;1.40;;;13.60;1.40;;;14.73;100.00;95745.22;646404;212;31612;-69
2021/06/06 08:32:36;;;;;;;2.30;1.60;;;13.60;1.40;;;14.68;100.00;95744.20;647000;215;31568;-70
2021/06/06 08:35:51;;;;;;;1.35;1.25;;;13.60;1.40;;;14.79;100.00;95745.77;646445;216;42786;-69
2021/06/06 08:38:32;;;;;;;1.07;0.90;;;13.70;1.40;;;14.80;100.00;95746.06;645711;216;31631;-70
2021/06/06 08:44:01;;;;;;;0.70;0.70;;;13.50;1.40;;;14.71;100.00;95750.88;645981;212;31820;-71
2021/06/06 08:46:58;;;;;;;1.20;0.80;;;13.60;1.40;;;14.79;100.00;95750.88;645524;216;41611;-69
2021/06/06 08:49:43;;;;;;;1.30;0.70;;;13.70;1.40;;;14.74;100.00;95748.98;646189;212;32877;-69
2021/06/06 08:55:01;;;;;;;0.90;0.90;;;13.70;1.40;;;14.75;100.00;95758.36;647082;212;31528;-69
2021/06/06 08:57:45;;;;;;;1.10;0.60;;;13.60;1.40;;;14.84;100.00;95752.91;646614;216;32860;-69
2021/06/06 09:00:26;;;;;;;0.90;0.75;;;13.70;1.40;;;14.79;100.00;95753.50;647330;216;32257;-70
2021/06/06 09:03:09;;;;;;;1.20;0.70;;;13.70;1.40;;;14.71;100.00;95753.34;617754;226;31828;-70
2021/06/06 09:05:59;;;;;;;0.95;0.60;;;13.60;1.40;;;14.74;100.00;95756.75;647426;212;32216;-69
2021/06/06 09:08:40;;;;;;;0.50;0.50;;;13.70;1.40;;;15.00;100.00;95761.36;645533;216;31638;-70
2021/06/06 09:11:22;;;;;;;1.10;0.80;;;13.80;1.40;;;15.02;100.00;95758.69;645833;212;31547;-70
2021/06/06 09:16:52;;;;;;;1.00;0.50;;;13.90;1.40;;;14.91;100.00;95767.12;645852;212;31509;-70
2021/06/06 09:19:44;;;;;;;1.00;0.50;;;13.70;1.40;;;14.73;100.00;95770.44;645807;212;31841;-70
2021/06/06 09:22:35;;;;;;;0.90;0.60;;;13.60;1.40;;;14.78;100.00;95765.84;646233;216;31557;-70
2021/06/06 09:25:34;;;;;;;0.63;0.60;;;13.70;1.40;;;14.68;100.00;95765.65;619372;222;35363;-70
2021/06/06 09:28:14;;;;;;;1.23;0.60;;;13.70;1.40;;;14.86;100.00;95760.92;647147;216;31503;-71
2021/06/06 09:30:59;;;;;;;0.60;0.53;;;13.80;1.40;;;15.14;100.00;95763.37;646314;216;31529;-70
2021/06/06 09:37:01;;;;;;;1.00;0.60;;;13.90;1.40;;;14.95;100.00;95768.84;646344;216;31573;-71
2021/06/06 09:39:43;;;;;;;0.70;0.70;;;13.90;1.40;;;15.20;100.00;95762.43;646769;212;34437;-71
2021/06/06 09:45:07;;;;;;;1.30;0.90;;;13.80;1.40;;;15.06;100.00;95766.47;646105;216;31611;-69
2021/06/06 09:48:16;;;;;;;0.90;0.77;;;13.90;1.40;;;15.00;100.00;95769.43;645904;216;31519;-70
2021/06/06 09:50:57;;;;;;;1.10;0.80;;;13.90;1.40;;;14.95;100.00;95766.62;647427;212;31537;-69
2021/06/06 09:53:39;;;;;;;0.80;0.60;;;13.90;1.40;;;14.97;100.00;95769.44;647941;216;32452;-70
2021/06/06 09:56:25;;;;;;;0.80;0.60;;;13.90;1.40;;;15.08;100.00;95770.27;646687;216;31511;-70
2021/06/06 09:59:10;;;;;;;1.00;0.90;;;14.00;1.40;;;15.24;100.00;95772.79;646957;216;33489;-69
2021/06/06 10:02:07;;;;;;;1.65;0.68;;;14.10;1.40;;;15.17;100.00;95770.24;647800;216;32236;-71
2021/06/06 10:04:51;;;;;;;0.80;0.70;;;14.00;1.40;;;15.23;100.00;95769.66;617390;225;32053;-70
2021/06/06 10:07:33;;;;;;;1.10;0.90;;;14.10;1.40;;;15.02;100.00;95774.22;646854;216;32798;-69
2021/06/06 10:10:17;;;;;;;1.48;0.80;;;13.80;1.40;;;14.80;100.00;95770.59;646341;216;31523;-69
2021/06/06 10:13:01;;;;;;;0.80;0.50;;;13.70;1.40;;;14.73;100.00;95771.02;619686;226;40039;-69
2021/06/06 10:15:44;;;;;;;1.00;0.60;;;13.70;1.40;;;14.78;100.00;95767.48;618223;226;32216;-69
2021/06/06 10:18:31;;;;;;;0.70;0.50;;;13.70;1.40;;;14.77;100.00;95768.16;646865;212;31919;-70
2021/06/06 10:21:21;;;;;;;0.50;0.40;;;13.80;1.40;;;14.59;100.00;95764.73;647046;216;31506;-70
2021/06/06 10:26:41;;;;;;;0.90;0.80;;;13.60;1.40;;;14.68;100.00;95765.04;647763;216;31480;-72
2021/06/06 10:29:30;;;;;;;1.40;0.60;;;13.60;1.40;;;14.62;100.00;95762.73;618111;222;31809;-69
2021/06/06 10:32:17;;;;;;;0.80;0.60;;;13.70;1.40;;;14.66;100.00;95764.55;647953;212;31528;-70
2021/06/06 10:35:51;;;;;;;0.80;0.80;;;13.60;1.40;;;14.69;100.00;95764.48;645137;216;31487;-70
2021/06/06 10:38:34;;;;;;;1.00;0.50;;;13.60;1.40;;;14.72;100.00;95760.36;646967;216;31486;-70
2021/06/06 10:41:16;;;;;;;0.67;0.50;;;13.70;1.40;;;14.85;100.00;95762.55;646890;216;31522;-69
2021/06/06 10:44:02;;;;;;;0.70;0.60;;;13.80;1.40;;;15.16;100.00;95754.45;645515;212;31486;-70
2021/06/06 10:46:48;;;;;;;3.60;3.30;;;14.10;1.40;;;15.32;100.00;95754.80;646378;212;32229;-70
2021/06/06 10:49:30;;;;;;;2.00;0.67;;;14.10;1.40;;;15.16;100.00;95749.97;647069;212;32711;-71
2021/06/06 10:52:21;;;;;;;1.52;0.90;;;14.00;1.40;;;15.23;100.00;95755.77;647686;216;31531;-70
2021/06/06 10:55:28;;;;;;;0.77;0.68;;;14.10;1.40;;;15.19;100.00;95753.31;647897;216;32504;-70
2021/06/06 10:58:14;;;;;;;0.80;0.70;;;14.10;1.40;;;15.23;100.00;95753.75;645905;212;31474;-71
2021/06/06 11:00:54;;;;;;;1.75;0.70;;;14.10;1.40;;;15.42;100.00;95755.41;645954;212;42117;-71
2021/06/06 11:03:39;;;;;;;0.70;0.70;;;14.30;1.40;;;15.25;100.00;95758.70;645881;216;32357;-70
2021/06/06 11:06:31;;;;;;;0.93;0.73;;;14.10;1.40;;;15.37;100.00;95754.16;645211;212;31490;-71
2021/06/06 11:09:28;;;;;;;1.30;0.80;;;14.30;1.40;;;15.44;100.00;95753.17;648034;212;31541;-72
2021/06/06 11:12:12;;;;;;;0.73;0.73;;;14.40;1.40;;;15.37;100.00;95755.71;619026;222;33095;-71
2021/06/06 11:14:52;;;;;;;1.12;1.00;;;14.20;1.40;;;15.73;100.00;95749.42;639948;212;32370;-72
2021/06/06 11:17:38;;;;;;;0.70;0.70;;;14.50;1.40;;;15.58;100.00;95754.15;647306;216;37072;-71
2021/06/06 11:20:34;;;;;;;0.80;0.75;;;14.30;1.40;;;15.47;100.00;95745.22;646998;216;31489;-70
2021/06/06 11:23:21;;;;;;;1.10;1.00;;;14.30;1.40;;;15.67;100.00;95745.58;647306;212;31547;-71
2021/06/06 11:28:43;;;;;;;1.20;0.80;;;14.50;1.40;;;15.55;100.00;95744.47;646797;216;31645;-71
2021/06/06 11:31:28;;;;;;;1.20;1.00;;;14.30;1.40;;;15.49;100.00;95744.73;645271;216;31621;-71
2021/06/06 11:35:51;;;;;;;0.80;0.80;;;14.50;1.40;;;15.73;100.00;95740.90;646863;216;31769;-72
2021/06/06 11:38:40;;;;;;;0.80;0.80;;;14.50;1.40;;;16.03;100.00;95734.62;644425;212;40925;-71
2021/06/06 11:41:32;;;;;;;2.15;1.00;;;14.80;1.40;;;15.99;100.00;95739.31;646679;216;37965;-71
2021/06/06 11:44:19;;;;;;;0.80;0.80;;;14.70;1.40;;;16.07;100.00;95737.70;645933;216;42170;-72
2021/06/06 11:47:21;;;;;;;1.10;0.90;;;14.80;1.40;;;16.28;100.00;95734.52;647274;212;31565;-71
2021/06/06 11:50:23;;;;;;;1.87;0.90;;;14.90;1.40;;;16.24;100.00;95730.35;647044;216;42200;-73
2021/06/06 11:53:10;;;;;;;0.90;0.70;;;15.10;1.40;;;16.27;100.00;95729.25;644824;212;41064;-72
2021/06/06 11:55:59;;;;;;;0.90;0.80;;;15.10;1.40;;;16.33;100.00;95728.84;646226;216;31526;-73
2021/06/06 11:58:43;;;;;;;1.00;0.70;;;15.40;1.40;;;16.64;100.00;95722.70;646580;212;42779;-72
2021/06/06 12:01:30;;;;;;;1.20;1.10;;;15.60;1.40;;;16.60;100.00;95727.20;645500;216;42284;-72
2021/06/06 12:04:34;;;;;;;0.93;0.90;;;15.70;1.40;;;16.77;100.00;95722.27;631798;221;31668;-72
2021/06/06 12:07:17;;;;;;;1.20;0.90;;;16.00;1.40;;;16.87;100.00;95719.67;646285;216;42121;-72
2021/06/06 12:10:00;;;;;;;0.73;0.70;;;16.10;1.40;;;16.81;100.00;95719.22;645344;212;42237;-70
2021/06/06 12:12:41;;;;;;;1.00;0.68;;;15.90;1.40;;;16.85;100.00;95718.57;646886;216;31665;-70
2021/06/06 12:15:37;;;;;;;1.52;0.80;;;16.00;1.40;;;17.15;100.00;95715.97;645885;216;32033;-72
2021/06/06 12:18:18;;;;;;;0.80;0.77;;;16.20;1.40;;;16.87;100.00;95721.88;646533;212;32227;-71
2021/06/06 12:21:12;;;;;;;1.20;0.70;;;16.00;1.40;;;16.52;100.00;95713.48;647117;216;31504;-71
2021/06/06 12:26:35;;;;;;;1.10;0.60;;;15.70;1.40;;;16.67;100.00;95714.52;619012;226;31893;-71
2021/06/06 12:29:24;;;;;;;0.70;0.60;;;15.80;1.40;;;16.63;100.00;95712.78;642888;216;31738;-72